Rechercher aéroport 
image banner adimage banner adimage banner ad
image banner ad

85CA - Redwood Coast Medical Services

Situé à Gualala, United States

ICAO - 85CA, IATA -

Données fournies par Airmate  

Information générale

Coordonnées: N38°46'15" W123°31'46"
Élévation : 172 feet MSL.
Variation magnétique : 16° East
Voir autres Aéroports à California

Données opérationnelles

Special qualification required
Heure actuelle UTC:
Heure actuelle locale:
Météo à : KUKI - Ukiah Muni ( 49 km )
METAR: KUKI 212356Z AUTO 14008KT 10SM CLR 36/04 A3001 RMK AO2 SLP154 T03610039 10367 20244 56011
TAF: KUKI 212337Z 2200/2224 14007KT P6SM SKC FM220300 VRB02KT P6SM SKC FM222300 27010KT P6SM SKC
Voir NOTAMs / SUP AIP / TFR affectant cet aéroport [VIEW]
Fréquences de communication: [VIEW]

Pistes:

Coordonnées de l'aéroport

Adresse: Gualala United States

Vue satellite de 85CA